createdAt,value
2023-01-12T00:02:09.474Z,8.09
2023-01-12T00:04:36.440Z,8.09
2023-01-12T00:07:06.456Z,8.10
2023-01-12T00:09:32.864Z,8.09
2023-01-12T00:11:59.576Z,8.11
2023-01-12T00:14:26.010Z,8.09
2023-01-12T00:16:52.427Z,8.05
2023-01-12T00:19:21.816Z,8.07
2023-01-12T00:21:57.992Z,8.08
2023-01-12T00:24:26.454Z,8.02
2023-01-12T00:26:54.247Z,8.04
2023-01-12T00:29:21.125Z,8.11
2023-01-12T00:31:47.693Z,8.14
2023-01-12T00:34:14.619Z,8.14
2023-01-12T00:36:41.115Z,8.06
2023-01-12T00:39:08.231Z,8.16
2023-01-12T00:41:55.631Z,8.16
2023-01-12T00:44:40.996Z,8.19
2023-01-12T00:47:07.837Z,8.23
2023-01-12T00:49:35.639Z,8.24
2023-01-12T00:52:02.465Z,8.20
2023-01-12T00:54:29.175Z,8.13
2023-01-12T00:56:55.537Z,8.07
2023-01-12T00:59:21.950Z,7.99
2023-01-12T01:01:48.378Z,7.94
2023-01-12T01:04:14.871Z,7.88
2023-01-12T01:06:41.322Z,7.88
2023-01-12T01:09:08.177Z,7.87
2023-01-12T01:11:35.589Z,7.84
2023-01-12T01:14:02.636Z,7.84
2023-01-12T01:16:29.772Z,7.80
2023-01-12T01:18:57.241Z,7.77
2023-01-12T01:21:23.707Z,7.79
2023-01-12T01:23:50.081Z,7.76
2023-01-12T01:26:21.207Z,7.73
2023-01-12T01:28:48.165Z,7.71
2023-01-12T01:31:20.279Z,7.71
2023-01-12T01:33:47.269Z,7.72
2023-01-12T01:36:14.531Z,7.70
2023-01-12T01:38:43.662Z,7.73
2023-01-12T01:41:17.529Z,7.69
2023-01-12T01:43:59.021Z,7.71
2023-01-12T01:46:40.892Z,7.71
2023-01-12T01:49:25.402Z,7.69
2023-01-12T01:51:55.957Z,7.68
2023-01-12T01:54:23.052Z,7.66
2023-01-12T01:56:54.667Z,7.65
2023-01-12T01:59:26.757Z,7.63
2023-01-12T02:01:55.044Z,7.64
2023-01-12T02:04:22.187Z,7.67
2023-01-12T02:06:49.346Z,7.69
2023-01-12T02:09:21.457Z,7.65
2023-01-12T02:12:06.851Z,7.65
2023-01-12T02:14:52.339Z,7.64
2023-01-12T02:17:34.157Z,7.68
2023-01-12T02:20:12.351Z,7.72
2023-01-12T02:23:15.707Z,7.70
2023-01-12T02:25:48.108Z,7.68
2023-01-12T02:28:38.840Z,7.69
2023-01-12T02:31:08.379Z,7.71
2023-01-12T02:33:58.181Z,7.74
2023-01-12T02:36:47.734Z,7.74
2023-01-12T02:39:29.738Z,7.79
2023-01-12T02:42:20.859Z,7.80
2023-01-12T02:45:10.937Z,7.79
2023-01-12T02:47:40.135Z,7.76
2023-01-12T02:50:12.776Z,7.73
2023-01-12T02:52:43.826Z,7.74
2023-01-12T02:55:12.149Z,7.72
2023-01-12T02:57:38.777Z,7.72
2023-01-12T03:00:06.841Z,7.69
2023-01-12T03:02:33.813Z,7.70
2023-01-12T03:05:00.257Z,7.69
2023-01-12T03:07:49.441Z,7.65
2023-01-12T03:10:27.234Z,7.60
2023-01-12T03:12:56.739Z,7.52
2023-01-12T03:15:24.298Z,7.48
2023-01-12T03:17:59.601Z,7.40
2023-01-12T03:20:34.059Z,7.29
2023-01-12T03:23:08.996Z,7.18
2023-01-12T03:25:37.797Z,7.13
2023-01-12T03:28:07.680Z,7.07
2023-01-12T03:30:41.083Z,7.01
2023-01-12T03:33:09.055Z,7.02
2023-01-12T03:35:40.896Z,6.97
2023-01-12T03:38:18.367Z,6.99
2023-01-12T03:40:55.592Z,6.97
2023-01-12T03:43:34.173Z,6.99
2023-01-12T03:46:04.632Z,7.00
2023-01-12T03:48:37.786Z,7.05
2023-01-12T03:51:14.238Z,7.15
2023-01-12T03:53:43.148Z,7.22
2023-01-12T03:56:13.018Z,7.32
2023-01-12T03:58:40.548Z,7.38
2023-01-12T04:01:07.096Z,7.43
2023-01-12T04:03:33.649Z,7.51
2023-01-12T04:06:00.054Z,7.53
2023-01-12T04:08:27.319Z,7.55
2023-01-12T04:10:53.786Z,7.55
2023-01-12T04:13:20.161Z,7.58
2023-01-12T04:15:47.281Z,7.60
2023-01-12T04:18:13.699Z,7.62
2023-01-12T04:20:42.055Z,7.63
2023-01-12T04:23:08.642Z,7.61
2023-01-12T04:25:35.323Z,7.64
2023-01-12T04:28:02.482Z,7.66
2023-01-12T04:30:30.720Z,7.66
2023-01-12T04:32:58.190Z,7.69
2023-01-12T04:35:24.889Z,7.68
2023-01-12T04:37:52.137Z,7.69
2023-01-12T04:40:19.227Z,7.69
2023-01-12T04:43:07.191Z,7.67
2023-01-12T04:45:36.897Z,7.69
2023-01-12T04:48:09.136Z,7.71
2023-01-12T04:50:35.605Z,7.70
2023-01-12T04:53:04.045Z,7.74
2023-01-12T04:55:30.543Z,7.78
2023-01-12T04:57:57.426Z,7.85
2023-01-12T05:00:24.100Z,7.94
2023-01-12T05:02:50.666Z,7.93
2023-01-12T05:05:17.066Z,7.97
2023-01-12T05:08:03.392Z,8.02
2023-01-12T05:10:30.436Z,8.04
2023-01-12T05:12:57.129Z,8.10
2023-01-12T05:15:23.917Z,8.20
2023-01-12T05:17:50.395Z,8.25
2023-01-12T05:20:16.993Z,8.29
2023-01-12T05:22:43.351Z,8.36
2023-01-12T05:25:09.945Z,8.42
2023-01-12T05:27:36.338Z,8.48
2023-01-12T05:30:03.410Z,8.60
2023-01-12T05:32:29.763Z,8.63
2023-01-12T05:34:56.154Z,8.63
2023-01-12T05:37:22.604Z,8.67
2023-01-12T05:39:49.008Z,8.66
2023-01-12T05:42:34.017Z,8.68
2023-01-12T05:45:00.422Z,8.73
2023-01-12T05:47:26.801Z,8.68
2023-01-12T05:49:53.187Z,8.69
2023-01-12T05:52:19.590Z,8.65
2023-01-12T05:54:45.961Z,8.64
2023-01-12T05:57:12.449Z,8.67
2023-01-12T05:59:38.821Z,8.65
2023-01-12T06:02:05.314Z,8.66
2023-01-12T06:04:31.869Z,8.67
2023-01-12T06:06:58.310Z,8.68
2023-01-12T06:09:24.751Z,8.71
2023-01-12T06:12:09.597Z,8.77
2023-01-12T06:14:35.955Z,8.77
2023-01-12T06:17:02.384Z,8.79
2023-01-12T06:19:28.837Z,8.79
2023-01-12T06:21:55.207Z,8.77
2023-01-12T06:24:21.765Z,8.80
2023-01-12T06:26:48.263Z,8.81
2023-01-12T06:29:14.706Z,8.83
2023-01-12T06:31:41.097Z,8.89
2023-01-12T06:34:08.530Z,8.89
2023-01-12T06:36:35.662Z,8.91
2023-01-12T06:39:02.664Z,8.99
2023-01-12T06:41:47.702Z,8.92
2023-01-12T06:44:14.277Z,8.95
2023-01-12T06:46:40.714Z,8.94
2023-01-12T06:49:07.219Z,8.99
2023-01-12T06:51:33.709Z,9.00
2023-01-12T06:54:01.326Z,9.06
2023-01-12T06:56:27.747Z,9.06
2023-01-12T06:58:54.334Z,9.07
2023-01-12T07:01:20.977Z,9.07
2023-01-12T07:03:47.478Z,9.04
2023-01-12T07:06:14.455Z,9.05
2023-01-12T07:08:40.985Z,9.11
2023-01-12T07:11:08.117Z,9.11
2023-01-12T07:13:34.813Z,9.07
2023-01-12T07:16:02.038Z,9.12
2023-01-12T07:18:30.002Z,9.10
2023-01-12T07:20:56.507Z,9.19
2023-01-12T07:23:23.171Z,9.26
2023-01-12T07:25:49.648Z,9.31
2023-01-12T07:28:16.078Z,9.32
2023-01-12T07:30:43.493Z,9.30
2023-01-12T07:33:12.512Z,9.36
2023-01-12T07:35:40.131Z,9.29
2023-01-12T07:38:06.879Z,9.41
2023-01-12T07:40:33.919Z,9.49
2023-01-12T07:43:08.990Z,9.38
2023-01-12T07:45:35.780Z,9.36
2023-01-12T07:48:02.307Z,9.39
2023-01-12T07:50:29.620Z,9.38
2023-01-12T07:52:59.729Z,9.44
2023-01-12T07:55:26.248Z,9.40
2023-01-12T07:58:07.137Z,9.37
2023-01-12T08:00:33.580Z,9.42
2023-01-12T08:03:07.985Z,9.43
2023-01-12T08:05:35.631Z,9.42
2023-01-12T08:08:03.656Z,9.42
2023-01-12T08:10:30.379Z,9.34
2023-01-12T08:12:56.985Z,9.34
2023-01-12T08:15:26.631Z,9.42
2023-01-12T08:18:01.201Z,9.43
2023-01-12T08:20:35.004Z,9.43
2023-01-12T08:23:21.620Z,9.42
2023-01-12T08:25:56.097Z,9.52
2023-01-12T08:28:24.987Z,9.58
2023-01-12T08:30:52.301Z,9.63
2023-01-12T08:33:19.460Z,9.64
2023-01-12T08:35:46.900Z,9.76
2023-01-12T08:38:13.625Z,9.69
2023-01-12T08:40:58.888Z,9.69
2023-01-12T08:43:43.858Z,9.70
2023-01-12T08:46:10.397Z,9.67
2023-01-12T08:48:38.158Z,9.78
2023-01-12T08:51:06.398Z,9.69
2023-01-12T08:53:32.806Z,9.72
2023-01-12T08:55:59.403Z,9.77
2023-01-12T08:58:25.870Z,9.77
2023-01-12T09:00:52.383Z,9.78
2023-01-12T09:03:18.933Z,9.82
2023-01-12T09:05:45.760Z,9.80
2023-01-12T09:08:12.136Z,9.84
2023-01-12T09:10:38.580Z,9.97
2023-01-12T09:13:04.999Z,9.99
2023-01-12T09:15:31.457Z,10.01
2023-01-12T09:17:58.132Z,10.07
2023-01-12T09:20:24.534Z,9.94
2023-01-12T09:22:50.906Z,9.83
2023-01-12T09:25:17.746Z,9.89
2023-01-12T09:27:44.260Z,9.86
2023-01-12T09:30:11.364Z,9.77
2023-01-12T09:32:37.756Z,9.64
2023-01-12T09:35:04.451Z,9.61
2023-01-12T09:37:30.797Z,9.70
2023-01-12T09:39:57.183Z,9.69
2023-01-12T09:42:42.110Z,9.80
2023-01-12T09:45:39.632Z,9.85
2023-01-12T09:48:10.362Z,9.86
2023-01-12T09:50:54.342Z,9.86
2023-01-12T09:53:26.627Z,9.95
2023-01-12T09:56:08.215Z,9.98
2023-01-12T09:58:59.289Z,9.94
2023-01-12T10:01:29.666Z,9.94
2023-01-12T10:03:59.913Z,9.96
2023-01-12T10:06:26.614Z,9.89
2023-01-12T10:08:58.707Z,9.97
2023-01-12T10:11:52.773Z,9.97
2023-01-12T10:14:34.428Z,9.94
2023-01-12T10:17:09.609Z,9.96
2023-01-12T10:19:39.094Z,9.93
2023-01-12T10:22:36.939Z,9.96
2023-01-12T10:25:25.570Z,10.03
2023-01-12T10:27:55.228Z,10.00
2023-01-12T10:30:28.739Z,10.03
2023-01-12T10:32:55.389Z,10.03
2023-01-12T10:35:24.630Z,10.09
2023-01-12T10:37:56.109Z,10.08
2023-01-12T10:40:28.078Z,10.17
2023-01-12T10:43:24.028Z,10.14
2023-01-12T10:46:12.165Z,10.16
2023-01-12T10:48:43.173Z,10.20
2023-01-12T10:51:29.526Z,10.10
2023-01-12T10:54:00.731Z,9.84
2023-01-12T10:56:37.198Z,9.61
2023-01-12T10:59:14.916Z,9.52
2023-01-12T11:01:50.908Z,9.53
2023-01-12T11:04:28.979Z,9.57
2023-01-12T11:07:10.882Z,9.69
2023-01-12T11:09:38.067Z,9.77
2023-01-12T11:12:30.023Z,9.78
2023-01-12T11:15:00.550Z,9.86
2023-01-12T11:17:36.747Z,9.93
2023-01-12T11:20:14.503Z,9.94
2023-01-12T11:22:42.969Z,9.98
2023-01-12T11:25:21.495Z,10.02
2023-01-12T11:27:54.809Z,10.07
2023-01-12T11:30:44.161Z,10.06
2023-01-12T11:33:16.217Z,10.01
2023-01-12T11:35:56.473Z,10.01
2023-01-12T11:38:29.047Z,10.13
2023-01-12T11:40:56.700Z,10.10
2023-01-12T11:43:51.249Z,10.06
2023-01-12T11:46:35.899Z,10.09
2023-01-12T11:49:20.546Z,10.10
2023-01-12T11:51:56.881Z,10.09
2023-01-12T11:54:24.600Z,10.11
2023-01-12T11:57:09.645Z,10.13
2023-01-12T11:59:54.101Z,10.13
2023-01-12T12:02:37.568Z,10.16
2023-01-12T12:05:40.414Z,10.08
2023-01-12T12:08:19.719Z,10.03
2023-01-12T12:10:59.303Z,10.02
2023-01-12T12:14:01.566Z,10.01
2023-01-12T12:16:37.773Z,10.00
2023-01-12T12:19:21.938Z,9.98
2023-01-12T12:21:55.335Z,9.97
2023-01-12T12:24:39.419Z,9.96
2023-01-12T12:27:28.774Z,9.95
2023-01-12T12:30:07.801Z,9.96
2023-01-12T12:32:46.487Z,9.87
2023-01-12T12:35:36.703Z,9.88
2023-01-12T12:38:24.832Z,9.87
2023-01-12T12:41:41.591Z,9.91
2023-01-12T12:44:46.750Z,9.88
2023-01-12T12:47:50.873Z,9.80
2023-01-12T12:50:27.417Z,9.74
2023-01-12T12:53:28.929Z,9.69
2023-01-12T12:55:59.341Z,9.61
2023-01-12T12:58:28.912Z,9.52
2023-01-12T13:01:15.429Z,9.44
2023-01-12T13:03:41.901Z,9.37
2023-01-12T13:06:31.170Z,9.31
2023-01-12T13:09:00.149Z,9.27
2023-01-12T13:11:56.146Z,9.25
2023-01-12T13:14:32.354Z,9.24
2023-01-12T13:17:20.427Z,9.23
2023-01-12T13:20:01.374Z,9.22
2023-01-12T13:22:32.710Z,9.21
2023-01-12T13:25:22.135Z,9.18
2023-01-12T13:27:56.476Z,9.19
2023-01-12T13:30:29.185Z,9.19
2023-01-12T13:33:10.686Z,9.21
2023-01-12T13:35:38.758Z,9.22
2023-01-12T13:38:20.500Z,9.22
2023-01-12T13:40:56.043Z,9.24
2023-01-12T13:43:33.594Z,9.24
2023-01-12T13:46:02.325Z,9.24
2023-01-12T13:48:30.423Z,9.27
2023-01-12T13:51:07.364Z,9.26
2023-01-12T13:53:33.802Z,9.29
2023-01-12T13:56:04.013Z,9.29
2023-01-12T13:58:42.498Z,9.31
2023-01-12T14:01:28.719Z,9.30
2023-01-12T14:04:13.522Z,9.29
2023-01-12T14:07:11.050Z,9.27
2023-01-12T14:09:56.020Z,9.31
2023-01-12T14:12:37.659Z,9.30
2023-01-12T14:15:50.405Z,9.32
2023-01-12T14:18:20.277Z,9.31
2023-01-12T14:20:49.354Z,9.32
2023-01-12T14:23:27.031Z,9.32
2023-01-12T14:26:13.708Z,9.38
2023-01-12T14:28:45.384Z,9.41
2023-01-12T14:31:25.059Z,9.42
2023-01-12T14:33:56.956Z,9.42
2023-01-12T14:36:29.178Z,9.38
2023-01-12T14:38:58.736Z,9.41
2023-01-12T14:41:46.673Z,9.37
2023-01-12T14:44:38.023Z,9.33
2023-01-12T14:47:05.044Z,9.35
2023-01-12T14:49:33.998Z,9.34
2023-01-12T14:52:02.744Z,9.33
2023-01-12T14:54:32.009Z,9.31
2023-01-12T14:57:08.222Z,9.28
2023-01-12T14:59:44.680Z,9.29
2023-01-12T15:02:13.852Z,9.27
2023-01-12T15:05:02.495Z,9.27
2023-01-12T15:07:57.083Z,9.22
2023-01-12T15:10:34.579Z,9.15
2023-01-12T15:13:24.033Z,9.13
2023-01-12T15:16:13.888Z,9.11
2023-01-12T15:18:59.460Z,9.07
2023-01-12T15:21:45.288Z,9.06
2023-01-12T15:24:41.337Z,9.03
2023-01-12T15:27:08.463Z,9.02
2023-01-12T15:29:35.103Z,9.03
2023-01-12T15:32:02.737Z,9.04
2023-01-12T15:34:29.671Z,9.06
2023-01-12T15:36:56.128Z,9.03
2023-01-12T15:39:22.556Z,9.02
2023-01-12T15:42:07.739Z,9.02
2023-01-12T15:44:34.119Z,9.02
2023-01-12T15:47:00.541Z,9.05
2023-01-12T15:49:27.059Z,9.01
2023-01-12T15:51:53.663Z,9.04
2023-01-12T15:54:21.318Z,9.04
2023-01-12T15:56:48.082Z,9.02
2023-01-12T15:59:15.010Z,9.03
2023-01-12T16:01:45.420Z,9.05
2023-01-12T16:04:41.606Z,9.06
2023-01-12T16:07:05.290Z,9.12
2023-01-12T16:09:31.696Z,9.12
2023-01-12T16:11:58.111Z,9.14
2023-01-12T16:14:24.508Z,9.15
2023-01-12T16:16:51.690Z,9.14
2023-01-12T16:19:22.388Z,9.17
2023-01-12T16:21:48.974Z,9.19
2023-01-12T16:24:15.431Z,9.24
2023-01-12T16:26:42.025Z,9.15
2023-01-12T16:29:08.879Z,9.17
2023-01-12T16:31:37.267Z,9.18
2023-01-12T16:34:05.329Z,9.17
2023-01-12T16:36:31.702Z,9.21
2023-01-12T16:38:58.533Z,9.17
2023-01-12T16:41:24.933Z,9.13
2023-01-12T16:43:51.514Z,9.14
2023-01-12T16:46:17.980Z,9.16
2023-01-12T16:48:44.550Z,9.22
2023-01-12T16:51:14.002Z,9.25
2023-01-12T16:53:41.509Z,9.27
2023-01-12T16:56:11.757Z,9.26
2023-01-12T16:58:38.326Z,9.23
2023-01-12T17:01:17.351Z,9.22
2023-01-12T17:03:44.138Z,9.24
2023-01-12T17:06:13.574Z,9.26
2023-01-12T17:08:44.576Z,9.21
2023-01-12T17:11:13.441Z,9.18
2023-01-12T17:13:40.699Z,9.20
2023-01-12T17:16:09.360Z,9.18
2023-01-12T17:18:37.376Z,9.13
2023-01-12T17:21:11.052Z,9.16
2023-01-12T17:23:39.383Z,9.13
2023-01-12T17:26:07.775Z,9.10
2023-01-12T17:28:34.993Z,9.11
2023-01-12T17:31:10.350Z,9.18
2023-01-12T17:33:37.568Z,9.19
2023-01-12T17:36:05.808Z,9.21
2023-01-12T17:38:33.083Z,9.22
2023-01-12T17:40:59.568Z,9.24
2023-01-12T17:43:26.673Z,9.26
2023-01-12T17:45:53.168Z,9.26
2023-01-12T17:48:19.707Z,9.22
2023-01-12T17:50:49.251Z,9.21
2023-01-12T17:53:17.258Z,9.23
2023-01-12T17:55:48.772Z,9.29
2023-01-12T17:58:18.435Z,9.26
2023-01-12T18:00:44.981Z,9.23
2023-01-12T18:03:11.445Z,9.24
2023-01-12T18:05:38.511Z,9.24
2023-01-12T18:08:04.984Z,9.18
2023-01-12T18:10:31.499Z,9.12
2023-01-12T18:12:57.997Z,9.15
2023-01-12T18:15:24.446Z,9.13
2023-01-12T18:17:50.946Z,9.09
2023-01-12T18:20:17.320Z,9.06
2023-01-12T18:22:44.763Z,9.04
2023-01-12T18:25:11.170Z,8.98
2023-01-12T18:27:37.678Z,8.97
2023-01-12T18:30:04.805Z,8.99
2023-01-12T18:32:31.202Z,8.94
2023-01-12T18:34:58.299Z,8.87
2023-01-12T18:37:24.779Z,8.87
2023-01-12T18:39:51.355Z,8.93
2023-01-12T18:42:36.296Z,8.95
2023-01-12T18:45:04.363Z,8.95
2023-01-12T18:47:49.513Z,9.01
2023-01-12T18:50:34.965Z,8.99
2023-01-12T18:53:19.767Z,9.01
2023-01-12T18:55:47.843Z,9.00
2023-01-12T18:58:14.213Z,8.96
2023-01-12T19:00:40.654Z,8.98
2023-01-12T19:03:07.364Z,9.04
2023-01-12T19:05:45.056Z,9.06
2023-01-12T19:08:30.195Z,9.13
2023-01-12T19:11:07.208Z,9.16
2023-01-12T19:13:51.987Z,9.18
2023-01-12T19:16:36.840Z,9.25
2023-01-12T19:19:03.326Z,9.24
2023-01-12T19:21:48.418Z,9.27
2023-01-12T19:24:33.196Z,9.23
2023-01-12T19:27:18.061Z,9.27
2023-01-12T19:29:45.181Z,9.31
2023-01-12T19:32:11.595Z,9.31
2023-01-12T19:34:37.972Z,9.32
2023-01-12T19:37:04.962Z,9.33
2023-01-12T19:39:59.563Z,9.30
2023-01-12T19:42:46.890Z,9.27
2023-01-12T19:45:13.721Z,9.24
2023-01-12T19:47:40.224Z,9.20
2023-01-12T19:50:08.225Z,9.12
2023-01-12T19:52:39.318Z,9.07
2023-01-12T19:55:08.358Z,9.03
2023-01-12T19:57:36.425Z,9.01
2023-01-12T20:00:06.650Z,9.01
2023-01-12T20:02:34.110Z,9.02
2023-01-12T20:05:00.594Z,9.03
2023-01-12T20:07:27.109Z,8.99
2023-01-12T20:09:53.535Z,9.01
2023-01-12T20:12:19.921Z,9.02
2023-01-12T20:14:46.294Z,9.06
2023-01-12T20:17:12.754Z,8.99
2023-01-12T20:19:39.202Z,8.95
2023-01-12T20:22:05.591Z,8.91
2023-01-12T20:24:32.171Z,8.84
2023-01-12T20:26:58.594Z,8.82
2023-01-12T20:29:25.094Z,8.83
2023-01-12T20:31:52.722Z,8.82
2023-01-12T20:34:20.714Z,8.78
2023-01-12T20:36:47.961Z,8.80
2023-01-12T20:39:14.836Z,8.78
2023-01-12T20:41:42.355Z,8.74
2023-01-12T20:44:15.063Z,8.78
2023-01-12T20:46:41.779Z,8.70
2023-01-12T20:49:08.358Z,8.75
2023-01-12T20:51:34.855Z,8.69
2023-01-12T20:54:03.051Z,8.68
2023-01-12T20:56:29.554Z,8.68
2023-01-12T20:59:00.245Z,8.61
2023-01-12T21:01:27.082Z,8.65
2023-01-12T21:03:53.633Z,8.64
2023-01-12T21:06:20.663Z,8.72
2023-01-12T21:08:47.696Z,8.75
2023-01-12T21:11:16.656Z,8.77
2023-01-12T21:13:43.466Z,8.77
2023-01-12T21:16:12.926Z,8.80
2023-01-12T21:18:39.586Z,8.75
2023-01-12T21:21:06.298Z,8.72
2023-01-12T21:23:32.802Z,8.68
2023-01-12T21:25:59.413Z,8.55
2023-01-12T21:28:27.500Z,8.50
2023-01-12T21:30:55.021Z,8.51
2023-01-12T21:33:21.552Z,8.44
2023-01-12T21:35:58.126Z,8.36
2023-01-12T21:38:26.143Z,8.27
2023-01-12T21:40:53.029Z,8.33
2023-01-12T21:43:20.132Z,8.35
2023-01-12T21:45:52.064Z,8.28
2023-01-12T21:48:20.589Z,8.29
2023-01-12T21:50:47.439Z,8.35
2023-01-12T21:53:17.551Z,8.38
2023-01-12T21:55:56.574Z,8.29
2023-01-12T21:58:24.334Z,8.27
2023-01-12T22:00:51.105Z,8.30
2023-01-12T22:03:18.058Z,8.11
2023-01-12T22:05:46.293Z,8.06
2023-01-12T22:08:12.709Z,7.99
2023-01-12T22:10:39.146Z,8.03
2023-01-12T22:13:09.768Z,7.99
2023-01-12T22:15:36.271Z,7.83
2023-01-12T22:18:02.838Z,7.79
2023-01-12T22:20:29.416Z,7.75
2023-01-12T22:22:55.985Z,7.81
2023-01-12T22:25:22.365Z,7.81
2023-01-12T22:27:48.779Z,7.70
2023-01-12T22:30:17.549Z,7.65
2023-01-12T22:32:44.771Z,7.67
2023-01-12T22:35:11.884Z,7.68
2023-01-12T22:37:39.730Z,7.72
2023-01-12T22:40:08.997Z,7.73
2023-01-12T22:42:54.143Z,7.65
2023-01-12T22:45:20.652Z,7.70
2023-01-12T22:47:54.779Z,7.75
2023-01-12T22:50:22.322Z,7.68
2023-01-12T22:52:52.938Z,7.55
2023-01-12T22:55:24.128Z,7.63
2023-01-12T22:57:51.154Z,7.59
2023-01-12T23:00:19.243Z,7.50
2023-01-12T23:03:01.719Z,7.58
2023-01-12T23:05:35.544Z,7.61
2023-01-12T23:08:04.632Z,7.53
2023-01-12T23:10:31.447Z,7.42
2023-01-12T23:13:16.296Z,7.57
2023-01-12T23:15:48.898Z,7.53
2023-01-12T23:18:18.436Z,7.49
2023-01-12T23:20:45.817Z,7.56
2023-01-12T23:23:13.200Z,7.64
2023-01-12T23:25:39.985Z,7.61
2023-01-12T23:28:07.852Z,7.54
2023-01-12T23:30:34.490Z,7.46
2023-01-12T23:33:03.914Z,7.42
2023-01-12T23:35:35.710Z,7.42
2023-01-12T23:38:02.687Z,7.39
2023-01-12T23:40:29.087Z,7.46
2023-01-12T23:42:55.487Z,7.48
2023-01-12T23:45:21.949Z,7.47
2023-01-12T23:47:48.292Z,7.50
2023-01-12T23:50:14.882Z,7.45
2023-01-12T23:52:41.271Z,7.52
2023-01-12T23:55:08.364Z,7.46
2023-01-12T23:57:35.444Z,7.57
